createdAt,value
2022-12-19T00:00:50.895Z,92.70
2022-12-19T00:03:20.098Z,92.70
2022-12-19T00:05:49.298Z,92.60
2022-12-19T00:08:18.838Z,92.70
2022-12-19T00:10:59.174Z,92.60
2022-12-19T00:13:34.763Z,92.70
2022-12-19T00:16:18.835Z,92.70
2022-12-19T00:18:52.340Z,92.70
2022-12-19T00:21:28.042Z,92.60
2022-12-19T00:23:57.721Z,92.60
2022-12-19T00:26:33.968Z,92.40
2022-12-19T00:29:14.126Z,92.50
2022-12-19T00:31:43.829Z,92.50
2022-12-19T00:34:13.088Z,92.50
2022-12-19T00:36:42.353Z,92.60
2022-12-19T00:39:12.624Z,92.70
2022-12-19T00:41:43.057Z,92.50
2022-12-19T00:44:16.534Z,92.40
2022-12-19T00:46:50.262Z,92.30
2022-12-19T00:49:22.967Z,92.50
2022-12-19T00:51:52.549Z,92.30
2022-12-19T00:54:21.953Z,92.10
2022-12-19T00:56:51.338Z,92.00
2022-12-19T00:59:26.513Z,91.90
2022-12-19T01:01:56.606Z,91.60
2022-12-19T01:04:28.565Z,90.10
2022-12-19T01:07:01.793Z,90.00
2022-12-19T01:09:33.529Z,89.70
2022-12-19T01:12:24.763Z,88.30
2022-12-19T01:15:04.922Z,88.60
2022-12-19T01:17:44.418Z,88.40
2022-12-19T01:20:29.184Z,88.40
2022-12-19T01:23:00.712Z,86.70
2022-12-19T01:25:30.212Z,86.60
2022-12-19T01:27:59.864Z,86.00
2022-12-19T01:30:30.744Z,84.70
2022-12-19T01:33:02.341Z,84.80
2022-12-19T01:35:31.546Z,85.60
2022-12-19T01:38:08.114Z,86.00
2022-12-19T01:40:38.628Z,84.60
2022-12-19T01:43:15.876Z,84.30
2022-12-19T01:45:46.032Z,84.30
2022-12-19T01:48:31.868Z,83.70
2022-12-19T01:51:17.622Z,83.20
2022-12-19T01:53:52.472Z,83.30
2022-12-19T01:56:29.323Z,83.70
2022-12-19T01:59:06.409Z,84.30
2022-12-19T02:01:50.919Z,83.70
2022-12-19T02:04:22.463Z,83.30
2022-12-19T02:06:54.184Z,82.90
2022-12-19T02:09:23.911Z,82.20
2022-12-19T02:11:54.065Z,81.80
2022-12-19T02:14:23.933Z,80.90
2022-12-19T02:17:20.204Z,81.40
2022-12-19T02:20:22.299Z,81.10
2022-12-19T02:23:03.339Z,82.10
2022-12-19T02:26:22.812Z,81.70
2022-12-19T02:29:39.637Z,81.90
2022-12-19T02:32:23.904Z,81.80
2022-12-19T02:35:01.361Z,81.50
2022-12-19T02:37:43.741Z,80.80
2022-12-19T02:40:55.747Z,81.20
2022-12-19T02:43:33.109Z,81.60
2022-12-19T02:46:05.881Z,80.50
2022-12-19T02:48:36.182Z,80.00
2022-12-19T02:51:06.206Z,80.10
2022-12-19T02:53:37.744Z,80.90
2022-12-19T02:57:04.894Z,80.40
2022-12-19T02:59:45.827Z,80.40
2022-12-19T03:02:37.305Z,80.40
2022-12-19T03:05:18.522Z,80.40
2022-12-19T03:08:21.119Z,79.60
2022-12-19T03:11:15.760Z,79.50
2022-12-19T03:14:01.188Z,79.10
2022-12-19T03:16:30.969Z,78.80
2022-12-19T03:19:03.893Z,78.80
2022-12-19T03:21:51.614Z,78.50
2022-12-19T03:24:21.746Z,78.40
2022-12-19T03:27:09.164Z,78.70
2022-12-19T03:29:57.468Z,78.40
2022-12-19T03:32:28.481Z,77.30
2022-12-19T03:35:19.487Z,77.50
2022-12-19T03:37:53.660Z,76.00
2022-12-19T03:40:27.372Z,75.20
2022-12-19T03:43:11.282Z,75.00
2022-12-19T03:48:48.546Z,75.60
2022-12-19T03:51:39.271Z,74.20
2022-12-19T03:54:32.565Z,74.50
2022-12-19T03:57:22.456Z,74.60
2022-12-19T03:59:58.220Z,74.70
2022-12-19T04:02:28.834Z,73.30
2022-12-19T04:05:10.650Z,73.00
2022-12-19T04:07:42.844Z,73.60
2022-12-19T04:10:18.105Z,73.40
2022-12-19T04:13:07.426Z,72.80
2022-12-19T04:16:30.123Z,73.20
2022-12-19T04:19:12.628Z,72.20
2022-12-19T04:21:57.440Z,72.70
2022-12-19T04:24:37.587Z,72.10
2022-12-19T04:27:09.689Z,71.90
2022-12-19T04:29:40.778Z,71.30
2022-12-19T04:32:12.595Z,71.20
2022-12-19T04:34:43.178Z,70.90
2022-12-19T04:37:13.526Z,70.90
2022-12-19T04:39:42.752Z,70.50
2022-12-19T04:42:11.954Z,70.10
2022-12-19T04:44:41.275Z,71.00
2022-12-19T04:47:10.513Z,70.60
2022-12-19T04:49:39.727Z,71.40
2022-12-19T04:52:08.950Z,70.00
2022-12-19T04:54:38.248Z,69.60
2022-12-19T04:57:07.778Z,69.80
2022-12-19T04:59:37.155Z,70.60
2022-12-19T05:02:09.376Z,69.70
2022-12-19T05:04:38.763Z,69.20
2022-12-19T05:07:08.001Z,68.50
2022-12-19T05:09:40.238Z,68.00
2022-12-19T05:12:12.226Z,67.80
2022-12-19T05:14:50.200Z,68.70
2022-12-19T05:17:22.261Z,68.80
2022-12-19T05:19:51.588Z,69.30
2022-12-19T05:22:33.296Z,68.80
2022-12-19T05:25:02.784Z,68.60
2022-12-19T05:27:33.236Z,67.90
2022-12-19T05:30:03.170Z,67.50
2022-12-19T05:32:34.692Z,68.40
2022-12-19T05:35:03.952Z,68.70
2022-12-19T05:37:33.360Z,68.70
2022-12-19T05:40:02.514Z,67.00
2022-12-19T05:42:31.724Z,66.60
2022-12-19T05:45:00.915Z,67.30
2022-12-19T05:47:30.768Z,67.70
2022-12-19T05:50:00.482Z,68.00
2022-12-19T05:52:29.885Z,66.70
2022-12-19T05:55:00.389Z,67.00
2022-12-19T05:57:29.526Z,66.40
2022-12-19T05:59:58.622Z,67.70
2022-12-19T06:02:27.960Z,65.40
2022-12-19T06:04:57.126Z,64.90
2022-12-19T06:07:26.387Z,66.50
2022-12-19T06:09:55.467Z,65.90
2022-12-19T06:12:24.946Z,65.20
2022-12-19T06:14:54.157Z,65.50
2022-12-19T06:17:23.306Z,65.40
2022-12-19T06:19:52.458Z,65.00
2022-12-19T06:22:21.554Z,65.30
2022-12-19T06:24:50.772Z,65.30
2022-12-19T06:27:19.875Z,66.00
2022-12-19T06:29:49.621Z,65.50
2022-12-19T06:32:18.779Z,65.60
2022-12-19T06:35:03.576Z,65.30
2022-12-19T06:37:33.000Z,64.50
2022-12-19T06:40:02.091Z,63.80
2022-12-19T06:42:31.276Z,64.60
2022-12-19T06:45:00.419Z,65.60
2022-12-19T06:47:30.121Z,65.20
2022-12-19T06:49:59.311Z,64.20
2022-12-19T06:52:28.594Z,64.40
2022-12-19T06:54:59.460Z,64.30
2022-12-19T06:57:29.078Z,64.10
2022-12-19T07:00:04.222Z,64.60
2022-12-19T07:02:34.490Z,64.80
2022-12-19T07:05:08.769Z,65.10
2022-12-19T07:07:38.660Z,65.80
2022-12-19T07:10:13.098Z,65.30
2022-12-19T07:12:43.358Z,65.00
2022-12-19T07:15:13.337Z,64.80
2022-12-19T07:17:43.354Z,64.10
2022-12-19T07:20:15.131Z,65.10
2022-12-19T07:22:49.735Z,65.40
2022-12-19T07:25:20.699Z,66.00
2022-12-19T07:27:50.627Z,65.60
2022-12-19T07:30:20.253Z,66.20
2022-12-19T07:32:53.201Z,66.10
2022-12-19T07:35:23.933Z,65.60
2022-12-19T07:37:53.568Z,65.20
2022-12-19T07:40:23.749Z,65.40
2022-12-19T07:42:58.124Z,65.00
2022-12-19T07:45:28.345Z,65.20
2022-12-19T07:48:02.781Z,65.90
2022-12-19T07:50:33.548Z,66.60
2022-12-19T07:53:02.852Z,65.70
2022-12-19T07:55:32.059Z,65.80
2022-12-19T07:58:01.512Z,66.00
2022-12-19T08:00:36.437Z,66.30
2022-12-19T08:03:08.781Z,66.10
2022-12-19T08:05:38.858Z,65.00
2022-12-19T08:08:12.558Z,66.10
2022-12-19T08:10:55.933Z,65.80
2022-12-19T08:13:35.156Z,66.00
2022-12-19T08:16:10.113Z,66.80
2022-12-19T08:18:43.324Z,66.50
2022-12-19T08:21:14.619Z,66.20
2022-12-19T08:23:48.859Z,66.00
2022-12-19T08:26:26.168Z,66.30
2022-12-19T08:28:58.446Z,66.60
2022-12-19T08:31:30.744Z,65.70
2022-12-19T08:34:00.760Z,65.50
2022-12-19T08:36:33.275Z,65.20
2022-12-19T08:39:05.670Z,65.20
2022-12-19T08:41:35.958Z,65.70
2022-12-19T08:44:13.467Z,65.20
2022-12-19T08:46:48.022Z,66.20
2022-12-19T08:52:05.885Z,66.60
2022-12-19T08:54:37.121Z,65.70
2022-12-19T08:57:06.545Z,66.00
2022-12-19T08:59:51.113Z,66.10
2022-12-19T09:02:21.562Z,66.20
2022-12-19T09:05:57.211Z,66.50
2022-12-19T09:07:41.901Z,66.50
2022-12-19T09:10:14.207Z,66.70
2022-12-19T09:12:46.673Z,66.70
2022-12-19T09:15:20.374Z,66.30
2022-12-19T09:17:56.152Z,66.40
2022-12-19T09:20:26.436Z,66.60
2022-12-19T09:22:57.112Z,66.60
2022-12-19T09:25:27.735Z,66.80
2022-12-19T09:28:26.959Z,67.10
2022-12-19T09:31:02.611Z,67.00
2022-12-19T09:33:43.608Z,67.00
2022-12-19T09:36:36.704Z,66.80
2022-12-19T09:39:06.521Z,67.10
2022-12-19T09:41:58.003Z,67.50
2022-12-19T09:44:51.904Z,67.60
2022-12-19T09:47:33.679Z,67.70
2022-12-19T09:50:04.837Z,67.70
2022-12-19T09:52:52.374Z,68.00
2022-12-19T09:55:34.043Z,67.90
2022-12-19T09:58:33.864Z,68.40
2022-12-19T10:01:12.548Z,68.40
2022-12-19T10:03:55.787Z,68.60
2022-12-19T10:07:12.992Z,69.00
2022-12-19T10:11:00.956Z,69.10
2022-12-19T10:13:12.837Z,69.50
2022-12-19T10:16:23.145Z,69.40
2022-12-19T10:19:03.078Z,69.80
2022-12-19T10:25:35.627Z,70.50
2022-12-19T10:28:40.779Z,71.00
2022-12-19T10:31:35.663Z,71.30
2022-12-19T10:34:29.775Z,71.80
2022-12-19T10:37:26.783Z,72.30
2022-12-19T10:40:29.520Z,72.40
2022-12-19T10:43:19.093Z,73.00
2022-12-19T10:46:04.019Z,73.30
2022-12-19T10:48:33.550Z,73.60
2022-12-19T10:51:06.246Z,73.80
2022-12-19T10:53:36.528Z,74.30
2022-12-19T10:56:31.698Z,74.40
2022-12-19T10:59:05.228Z,74.40
2022-12-19T11:01:40.687Z,74.70
2022-12-19T11:04:33.143Z,75.20
2022-12-19T11:07:05.628Z,75.20
2022-12-19T11:09:50.647Z,75.40
2022-12-19T11:16:35.575Z,75.80
2022-12-19T11:19:31.293Z,75.80
2022-12-19T11:28:08.244Z,75.90
2022-12-19T11:29:33.020Z,76.00
2022-12-19T11:30:47.112Z,76.40
2022-12-19T11:30:48.179Z,76.40
2022-12-19T11:31:51.002Z,76.30
2022-12-19T11:33:20.337Z,76.70
2022-12-19T11:36:02.732Z,77.00
2022-12-19T11:38:53.786Z,77.10
2022-12-19T11:41:36.716Z,77.20
2022-12-19T11:44:33.553Z,77.50
2022-12-19T11:47:34.410Z,77.50
2022-12-19T11:50:27.924Z,77.70
2022-12-19T11:53:24.641Z,77.40
2022-12-19T11:56:05.027Z,77.60
2022-12-19T11:58:51.854Z,77.70
2022-12-19T12:01:48.457Z,78.00
2022-12-19T12:04:57.628Z,78.00
2022-12-19T12:07:56.996Z,78.30
2022-12-19T12:16:09.472Z,78.40
2022-12-19T12:23:23.465Z,78.30
2022-12-19T12:31:23.616Z,78.20
2022-12-19T12:31:27.605Z,78.30
2022-12-19T12:31:43.269Z,78.30
2022-12-19T12:31:52.739Z,78.40
2022-12-19T12:38:30.176Z,79.20
2022-12-19T12:41:55.404Z,79.40
2022-12-19T12:44:32.846Z,79.30
2022-12-19T12:47:27.343Z,79.40
2022-12-19T12:50:09.007Z,79.30
2022-12-19T12:52:51.109Z,79.30
2022-12-19T12:55:44.366Z,79.00
2022-12-19T12:58:54.386Z,78.80
2022-12-19T13:01:41.332Z,78.80
2022-12-19T13:04:13.549Z,79.00
2022-12-19T13:06:54.781Z,79.00
2022-12-19T13:09:31.456Z,79.00
2022-12-19T13:12:46.489Z,78.90
2022-12-19T13:15:30.681Z,78.80
2022-12-19T13:18:12.493Z,79.60
2022-12-19T13:20:47.727Z,78.80
2022-12-19T13:23:48.053Z,79.10
2022-12-19T13:26:48.890Z,79.20
2022-12-19T13:29:32.121Z,79.40
2022-12-19T13:32:16.586Z,79.20
2022-12-19T13:35:49.632Z,79.40
2022-12-19T13:39:59.623Z,79.50
2022-12-19T13:41:50.101Z,79.60
2022-12-19T13:44:24.207Z,79.80
2022-12-19T13:46:56.548Z,80.10
2022-12-19T13:49:35.659Z,80.00
2022-12-19T13:52:06.515Z,80.10
2022-12-19T13:54:57.021Z,80.10
2022-12-19T14:00:42.133Z,80.70
2022-12-19T14:03:21.761Z,80.60
2022-12-19T14:06:16.376Z,80.60
2022-12-19T14:08:41.661Z,80.40
2022-12-19T14:11:40.936Z,80.60
2022-12-19T14:14:27.536Z,80.80
2022-12-19T14:17:10.066Z,80.80
2022-12-19T14:19:53.233Z,80.90
2022-12-19T14:22:41.383Z,81.70
2022-12-19T14:26:56.938Z,82.10
2022-12-19T14:28:23.737Z,82.40
2022-12-19T14:31:09.487Z,82.80
2022-12-19T14:34:10.964Z,83.30
2022-12-19T14:36:55.588Z,83.40
2022-12-19T14:39:33.535Z,83.80
2022-12-19T14:43:56.249Z,82.40
2022-12-19T14:52:50.774Z,84.10
2022-12-19T14:54:07.891Z,84.90
2022-12-19T14:54:34.134Z,85.70
2022-12-19T14:58:54.883Z,86.20
2022-12-19T15:01:07.600Z,86.70
2022-12-19T15:03:27.979Z,87.30
2022-12-19T15:07:05.898Z,86.90
2022-12-19T15:10:58.739Z,87.00
2022-12-19T15:14:48.709Z,87.20
2022-12-19T15:16:05.198Z,87.40
2022-12-19T15:18:44.148Z,87.50
2022-12-19T15:21:16.047Z,87.60
2022-12-19T15:23:48.309Z,87.60
2022-12-19T15:26:22.177Z,87.70
2022-12-19T15:28:54.792Z,87.80
2022-12-19T15:31:39.633Z,88.20
2022-12-19T15:34:51.140Z,88.20
2022-12-19T15:37:19.170Z,88.10
2022-12-19T15:39:48.264Z,88.50
2022-12-19T15:42:22.869Z,88.40
2022-12-19T15:44:54.776Z,88.70
2022-12-19T15:47:39.133Z,88.80
2022-12-19T15:50:19.454Z,88.80
2022-12-19T15:52:48.621Z,89.20
2022-12-19T15:55:27.179Z,88.90
2022-12-19T15:58:08.095Z,89.20
2022-12-19T16:00:41.059Z,89.10
2022-12-19T16:03:24.553Z,89.20
2022-12-19T16:05:55.091Z,89.40
2022-12-19T16:08:27.131Z,89.50
2022-12-19T16:11:01.714Z,90.00
2022-12-19T16:13:36.384Z,89.80
2022-12-19T16:16:15.095Z,90.10
2022-12-19T16:18:46.332Z,90.30
2022-12-19T16:21:35.537Z,90.30
2022-12-19T16:24:04.796Z,90.30
2022-12-19T16:26:41.238Z,90.40
2022-12-19T16:29:38.114Z,90.60
2022-12-19T16:32:14.735Z,90.60
2022-12-19T16:34:43.881Z,90.90
2022-12-19T16:37:13.081Z,91.00
2022-12-19T16:39:42.395Z,91.10
2022-12-19T16:42:19.242Z,91.30
2022-12-19T16:44:49.802Z,91.40
2022-12-19T16:47:20.684Z,91.40
2022-12-19T16:49:50.191Z,91.70
2022-12-19T16:52:19.325Z,91.70
2022-12-19T16:54:48.463Z,91.80
2022-12-19T16:57:24.356Z,91.80
2022-12-19T16:59:53.529Z,91.90
2022-12-19T17:02:42.036Z,91.90
2022-12-19T17:05:31.746Z,91.90
2022-12-19T17:08:01.699Z,91.20
2022-12-19T17:10:34.477Z,91.90
2022-12-19T17:13:05.306Z,91.80
2022-12-19T17:15:39.732Z,92.00
2022-12-19T17:18:37.177Z,92.30
2022-12-19T17:21:06.739Z,92.30
2022-12-19T17:23:35.884Z,92.20
2022-12-19T17:26:05.076Z,92.30
2022-12-19T17:28:34.166Z,92.30
2022-12-19T17:31:12.482Z,92.50
2022-12-19T17:33:42.958Z,92.50
2022-12-19T17:36:21.224Z,92.40
2022-12-19T17:38:53.741Z,92.40
2022-12-19T17:41:22.942Z,92.50
2022-12-19T17:43:52.145Z,92.50
2022-12-19T17:46:24.650Z,92.40
2022-12-19T17:48:55.370Z,92.30
2022-12-19T17:51:25.636Z,92.20
2022-12-19T17:53:54.783Z,92.10
2022-12-19T17:56:24.017Z,92.00
2022-12-19T17:58:53.132Z,92.10
2022-12-19T18:01:26.935Z,92.20
2022-12-19T18:03:57.192Z,92.20
2022-12-19T18:06:26.498Z,92.20
2022-12-19T18:08:56.592Z,92.20
2022-12-19T18:11:28.146Z,92.40
2022-12-19T18:13:57.385Z,92.40
2022-12-19T18:16:31.902Z,92.50
2022-12-19T18:19:01.066Z,92.50
2022-12-19T18:21:30.136Z,92.50
2022-12-19T18:23:59.321Z,92.50
2022-12-19T18:26:28.419Z,92.40
2022-12-19T18:28:57.529Z,92.30
2022-12-19T18:31:28.455Z,92.40
2022-12-19T18:34:06.967Z,92.50
2022-12-19T18:36:43.912Z,92.60
2022-12-19T18:39:25.946Z,92.80
2022-12-19T18:41:56.169Z,93.00
2022-12-19T18:44:25.334Z,93.00
2022-12-19T18:46:55.253Z,93.10
2022-12-19T18:49:24.579Z,93.20
2022-12-19T18:51:53.743Z,93.50
2022-12-19T18:54:24.249Z,93.40
2022-12-19T18:56:53.528Z,93.40
2022-12-19T18:59:22.783Z,93.70
2022-12-19T19:01:52.126Z,93.70
2022-12-19T19:04:21.465Z,93.70
2022-12-19T19:06:52.773Z,93.70
2022-12-19T19:09:23.608Z,93.70
2022-12-19T19:11:53.008Z,93.70
2022-12-19T19:14:22.196Z,93.70
2022-12-19T19:16:53.372Z,93.60
2022-12-19T19:19:22.632Z,93.50
2022-12-19T19:21:51.791Z,93.70
2022-12-19T19:24:24.224Z,93.70
2022-12-19T19:26:53.420Z,94.00
2022-12-19T19:29:22.595Z,94.00
2022-12-19T19:31:54.105Z,94.10
2022-12-19T19:34:28.773Z,94.10
2022-12-19T19:37:05.269Z,94.10
2022-12-19T19:39:36.289Z,94.20
2022-12-19T19:42:06.040Z,94.30
2022-12-19T19:44:35.274Z,94.20
2022-12-19T19:47:04.570Z,94.30
2022-12-19T19:49:34.424Z,94.30
2022-12-19T19:52:03.687Z,94.40
2022-12-19T19:54:33.465Z,94.60
2022-12-19T19:57:02.829Z,94.40
2022-12-19T19:59:33.244Z,94.50
2022-12-19T20:02:02.841Z,94.60
2022-12-19T20:04:32.730Z,94.30
2022-12-19T20:07:02.036Z,94.60
2022-12-19T20:09:31.747Z,94.50
2022-12-19T20:12:01.373Z,94.80
2022-12-19T20:14:30.615Z,94.80
2022-12-19T20:16:59.877Z,95.10
2022-12-19T20:19:29.231Z,94.80
2022-12-19T20:21:59.514Z,94.80
2022-12-19T20:24:29.174Z,94.80
2022-12-19T20:26:59.904Z,94.80
2022-12-19T20:29:29.564Z,95.00
2022-12-19T20:31:58.939Z,95.00
2022-12-19T20:34:28.176Z,95.10
2022-12-19T20:36:57.386Z,95.00
2022-12-19T20:39:26.713Z,95.10
2022-12-19T20:41:56.016Z,95.00
2022-12-19T20:44:25.257Z,95.00
2022-12-19T20:46:54.965Z,94.90
2022-12-19T20:49:26.377Z,95.00
2022-12-19T20:51:55.874Z,95.10
2022-12-19T20:54:25.126Z,95.10
2022-12-19T20:56:54.413Z,95.10
2022-12-19T20:59:23.774Z,95.20
2022-12-19T21:01:53.087Z,95.20
2022-12-19T21:04:22.527Z,95.10
2022-12-19T21:06:51.865Z,95.20
2022-12-19T21:09:21.045Z,95.20
2022-12-19T21:11:50.391Z,95.10
2022-12-19T21:14:19.608Z,95.10
2022-12-19T21:16:48.813Z,95.30
2022-12-19T21:19:18.080Z,95.20
2022-12-19T21:21:47.342Z,95.20
2022-12-19T21:24:16.512Z,95.10
2022-12-19T21:26:46.188Z,95.20
2022-12-19T21:29:15.547Z,95.20
2022-12-19T21:31:45.744Z,95.20
2022-12-19T21:34:15.441Z,95.20
2022-12-19T21:36:44.724Z,95.10
2022-12-19T21:39:14.116Z,95.20
2022-12-19T21:41:43.280Z,95.30
2022-12-19T21:44:13.022Z,95.20
2022-12-19T21:46:42.234Z,95.10
2022-12-19T21:49:12.003Z,95.10
2022-12-19T21:51:41.289Z,95.20
2022-12-19T21:54:11.674Z,95.20
2022-12-19T21:56:44.201Z,95.20
2022-12-19T21:59:17.458Z,95.10
2022-12-19T22:01:47.554Z,95.20
2022-12-19T22:04:21.802Z,95.10
2022-12-19T22:06:53.044Z,95.20
2022-12-19T22:09:25.924Z,95.50
2022-12-19T22:11:55.148Z,95.40
2022-12-19T22:14:24.556Z,95.50
2022-12-19T22:16:54.781Z,95.50
2022-12-19T22:19:23.998Z,95.40
2022-12-19T22:21:53.195Z,95.30
2022-12-19T22:24:23.319Z,95.30
2022-12-19T22:26:52.939Z,95.20
2022-12-19T22:29:22.233Z,95.20
2022-12-19T22:31:51.589Z,95.10
2022-12-19T22:34:23.228Z,95.10
2022-12-19T22:36:52.502Z,95.10
2022-12-19T22:39:23.441Z,95.20
2022-12-19T22:41:53.013Z,95.30
2022-12-19T22:44:25.367Z,95.20
2022-12-19T22:46:54.964Z,95.40
2022-12-19T22:49:24.112Z,95.30
2022-12-19T22:51:53.322Z,95.40
2022-12-19T22:54:22.487Z,95.20
2022-12-19T22:56:53.049Z,95.30
2022-12-19T22:59:22.460Z,95.30
2022-12-19T23:01:51.836Z,95.40
2022-12-19T23:04:21.253Z,95.50
2022-12-19T23:06:50.560Z,95.40
2022-12-19T23:09:20.663Z,95.40
2022-12-19T23:11:51.236Z,95.30
2022-12-19T23:14:22.517Z,95.50
2022-12-19T23:16:52.078Z,95.50
2022-12-19T23:19:21.494Z,95.70
2022-12-19T23:21:50.576Z,95.70
2022-12-19T23:24:19.852Z,95.70
2022-12-19T23:26:48.924Z,95.80
2022-12-19T23:29:18.192Z,95.90
2022-12-19T23:31:48.850Z,95.90
2022-12-19T23:34:19.047Z,96.00
2022-12-19T23:39:37.451Z,95.60
2022-12-19T23:42:06.846Z,95.90
2022-12-19T23:44:36.208Z,96.10
2022-12-19T23:47:05.328Z,95.90
2022-12-19T23:49:35.453Z,95.90
2022-12-19T23:52:05.453Z,95.80
2022-12-19T23:54:34.693Z,96.00
2022-12-19T23:57:03.831Z,96.10
2022-12-19T23:59:33.011Z,96.30
